sensor_id;sensor_type;location;lat;lon;timestamp;pressure;altitude;pressure_sealevel;temperature;humidity
10992;BME280;5549;47.028;15.514;2023-04-10T00:01:20;97312.91;;;6.93;71.91
10992;BME280;5549;47.028;15.514;2023-04-10T00:03:49;97309.22;;;6.97;71.74
10992;BME280;5549;47.028;15.514;2023-04-10T00:06:19;97312.75;;;6.96;71.65
10992;BME280;5549;47.028;15.514;2023-04-10T00:08:48;97311.66;;;7.00;71.04
10992;BME280;5549;47.028;15.514;2023-04-10T00:11:18;97306.34;;;7.01;71.28
10992;BME280;5549;47.028;15.514;2023-04-10T00:13:45;97303.81;;;7.00;71.93
10992;BME280;5549;47.028;15.514;2023-04-10T00:16:15;97301.22;;;7.00;71.98
10992;BME280;5549;47.028;15.514;2023-04-10T00:18:45;97305.03;;;6.94;72.37
10992;BME280;5549;47.028;15.514;2023-04-10T00:21:16;97305.84;;;6.95;71.52
10992;BME280;5549;47.028;15.514;2023-04-10T00:23:46;97306.53;;;6.98;71.90
10992;BME280;5549;47.028;15.514;2023-04-10T00:26:14;97301.22;;;7.00;71.48
10992;BME280;5549;47.028;15.514;2023-04-10T00:28:41;97296.75;;;7.02;71.03
10992;BME280;5549;47.028;15.514;2023-04-10T00:31:09;97294.88;;;7.04;70.95
10992;BME280;5549;47.028;15.514;2023-04-10T00:33:36;97296.00;;;7.00;71.29
10992;BME280;5549;47.028;15.514;2023-04-10T00:36:04;97293.38;;;7.00;71.12
10992;BME280;5549;47.028;15.514;2023-04-10T00:38:33;97288.16;;;7.00;71.75
10992;BME280;5549;47.028;15.514;2023-04-10T00:41:06;97293.19;;;7.03;71.18
10992;BME280;5549;47.028;15.514;2023-04-10T00:43:33;97293.03;;;7.06;71.42
10992;BME280;5549;47.028;15.514;2023-04-10T00:46:01;97294.69;;;7.07;71.70
10992;BME280;5549;47.028;15.514;2023-04-10T00:48:30;97294.69;;;7.07;71.52
10992;BME280;5549;47.028;15.514;2023-04-10T00:51:01;97293.03;;;7.06;71.75
10992;BME280;5549;47.028;15.514;2023-04-10T00:53:32;97303.25;;;6.95;72.32
10992;BME280;5549;47.028;15.514;2023-04-10T00:56:01;97296.34;;;6.94;71.37
10992;BME280;5549;47.028;15.514;2023-04-10T00:58:28;97297.94;;;6.96;71.18
10992;BME280;5549;47.028;15.514;2023-04-10T01:00:56;97293.38;;;7.00;71.61
10992;BME280;5549;47.028;15.514;2023-04-10T01:03:24;97288.16;;;7.00;70.75
10992;BME280;5549;47.028;15.514;2023-04-10T01:06:07;97293.88;;;6.91;71.35
10992;BME280;5549;47.028;15.514;2023-04-10T01:08:49;97289.84;;;6.85;71.68
10992;BME280;5549;47.028;15.514;2023-04-10T01:11:29;97290.50;;;6.89;71.39
10992;BME280;5549;47.028;15.514;2023-04-10T01:14:20;97289.94;;;6.84;72.10
10992;BME280;5549;47.028;15.514;2023-04-10T01:16:55;97289.00;;;6.85;71.33
10992;BME280;5549;47.028;15.514;2023-04-10T01:19:33;97286.09;;;6.75;72.26
10992;BME280;5549;47.028;15.514;2023-04-10T01:22:09;97286.69;;;6.64;72.55
10992;BME280;5549;47.028;15.514;2023-04-10T01:24:54;97284.44;;;6.58;72.90
10992;BME280;5549;47.028;15.514;2023-04-10T01:27:49;97285.59;;;6.68;71.87
10992;BME280;5549;47.028;15.514;2023-04-10T01:30:24;97286.25;;;6.72;72.19
10992;BME280;5549;47.028;15.514;2023-04-10T01:32:57;97279.09;;;6.75;71.53
10992;BME280;5549;47.028;15.514;2023-04-10T01:35:29;97284.06;;;6.80;71.55
10992;BME280;5549;47.028;15.514;2023-04-10T01:38:02;97285.66;;;6.83;71.32
10992;BME280;5549;47.028;15.514;2023-04-10T01:40:32;97287.25;;;6.85;71.80
10992;BME280;5549;47.028;15.514;2023-04-10T01:43:06;97287.25;;;6.85;71.58
10992;BME280;5549;47.028;15.514;2023-04-10T01:45:38;97275.97;;;6.85;71.37
10992;BME280;5549;47.028;15.514;2023-04-10T01:48:11;97284.53;;;6.87;70.88
10992;BME280;5549;47.028;15.514;2023-04-10T01:50:39;97274.09;;;6.87;70.64
10992;BME280;5549;47.028;15.514;2023-04-10T01:53:07;97273.16;;;6.88;70.85
10992;BME280;5549;47.028;15.514;2023-04-10T01:55:36;97283.78;;;6.85;69.97
10992;BME280;5549;47.028;15.514;2023-04-10T01:58:04;97276.72;;;6.87;70.76
10992;BME280;5549;47.028;15.514;2023-04-10T02:00:38;97266.63;;;6.81;70.38
10992;BME280;5549;47.028;15.514;2023-04-10T02:03:09;97283.31;;;6.78;69.81
10992;BME280;5549;47.028;15.514;2023-04-10T02:05:48;97272.03;;;6.78;69.70
10992;BME280;5549;47.028;15.514;2023-04-10T02:08:27;97275.72;;;6.73;69.53
10992;BME280;5549;47.028;15.514;2023-04-10T02:11:06;97274.06;;;6.72;69.83
10992;BME280;5549;47.028;15.514;2023-04-10T02:13:40;97278.69;;;6.67;69.93
10992;BME280;5549;47.028;15.514;2023-04-10T02:16:13;97271.03;;;6.64;69.33
10992;BME280;5549;47.028;15.514;2023-04-10T02:18:43;97274.56;;;6.63;69.65
10992;BME280;5549;47.028;15.514;2023-04-10T02:21:12;97278.13;;;6.62;69.09
10992;BME280;5549;47.028;15.514;2023-04-10T02:23:40;97281.66;;;6.61;68.81
10992;BME280;5549;47.028;15.514;2023-04-10T02:26:09;97274.84;;;6.59;69.46
10992;BME280;5549;47.028;15.514;2023-04-10T02:28:39;97282.75;;;6.57;68.79
10992;BME280;5549;47.028;15.514;2023-04-10T02:31:07;97276.94;;;6.52;68.85
10992;BME280;5549;47.028;15.514;2023-04-10T02:33:35;97277.13;;;6.49;68.76
10992;BME280;5549;47.028;15.514;2023-04-10T02:36:06;97278.22;;;6.45;69.05
10992;BME280;5549;47.028;15.514;2023-04-10T02:38:34;97274.28;;;6.38;69.95
10992;BME280;5549;47.028;15.514;2023-04-10T02:41:05;97277.16;;;6.33;69.78
10992;BME280;5549;47.028;15.514;2023-04-10T02:43:32;97273.09;;;6.28;70.13
10992;BME280;5549;47.028;15.514;2023-04-10T02:46:02;97273.28;;;6.25;70.53
10992;BME280;5549;47.028;15.514;2023-04-10T02:48:30;97267.31;;;6.23;70.14
10992;BME280;5549;47.028;15.514;2023-04-10T02:50:59;97272.09;;;6.15;70.96
10992;BME280;5549;47.028;15.514;2023-04-10T02:53:31;97280.69;;;6.17;71.02
10992;BME280;5549;47.028;15.514;2023-04-10T02:55:58;97280.69;;;6.17;70.62
10992;BME280;5549;47.028;15.514;2023-04-10T02:58:27;97280.69;;;6.17;70.84
10992;BME280;5549;47.028;15.514;2023-04-10T03:00:58;97277.50;;;6.11;70.42
10992;BME280;5549;47.028;15.514;2023-04-10T03:03:28;97271.19;;;6.00;71.18
10992;BME280;5549;47.028;15.514;2023-04-10T03:05:55;97274.78;;;5.97;71.87
10992;BME280;5549;47.028;15.514;2023-04-10T03:08:24;97276.66;;;5.95;71.11
10992;BME280;5549;47.028;15.514;2023-04-10T03:10:52;97268.38;;;5.87;71.44
10992;BME280;5549;47.028;15.514;2023-04-10T03:13:22;97262.88;;;5.76;72.80
10992;BME280;5549;47.028;15.514;2023-04-10T03:15:54;97268.59;;;5.67;72.58
10992;BME280;5549;47.028;15.514;2023-04-10T03:18:24;97268.75;;;5.64;72.88
10992;BME280;5549;47.028;15.514;2023-04-10T03:20:52;97266.19;;;5.46;73.81
10992;BME280;5549;47.028;15.514;2023-04-10T03:23:24;97273.59;;;5.21;75.08
10992;BME280;5549;47.028;15.514;2023-04-10T03:25:52;97279.09;;;5.15;75.35
10992;BME280;5549;47.028;15.514;2023-04-10T03:28:22;97277.13;;;5.20;75.41
10992;BME280;5549;47.028;15.514;2023-04-10T03:30:50;97277.66;;;5.27;74.53
10992;BME280;5549;47.028;15.514;2023-04-10T03:33:18;97272.13;;;5.33;74.46
10992;BME280;5549;47.028;15.514;2023-04-10T03:35:45;97275.72;;;5.30;73.71
10992;BME280;5549;47.028;15.514;2023-04-10T03:38:14;97283.06;;;5.05;75.49
10992;BME280;5549;47.028;15.514;2023-04-10T03:40:45;97277.25;;;5.17;74.83
10992;BME280;5549;47.028;15.514;2023-04-10T03:43:15;97279.56;;;5.06;75.65
10992;BME280;5549;47.028;15.514;2023-04-10T03:45:43;97291.13;;;4.83;76.46
10992;BME280;5549;47.028;15.514;2023-04-10T03:48:11;97286.44;;;4.90;75.95
10992;BME280;5549;47.028;15.514;2023-04-10T03:50:39;97280.25;;;4.75;77.05
10992;BME280;5549;47.028;15.514;2023-04-10T03:53:08;97280.63;;;4.67;77.51
10992;BME280;5549;47.028;15.514;2023-04-10T03:55:36;97281.69;;;4.63;78.04
10992;BME280;5549;47.028;15.514;2023-04-10T03:58:07;97281.28;;;4.54;78.22
10992;BME280;5549;47.028;15.514;2023-04-10T04:00:35;97280.69;;;4.66;77.40
10992;BME280;5549;47.028;15.514;2023-04-10T04:03:05;97281.94;;;4.76;77.15
10992;BME280;5549;47.028;15.514;2023-04-10T04:05:33;97272.75;;;4.86;76.51
10992;BME280;5549;47.028;15.514;2023-04-10T04:08:00;97282.47;;;4.82;76.19
10992;BME280;5549;47.028;15.514;2023-04-10T04:10:29;97276.97;;;4.89;75.48
10992;BME280;5549;47.028;15.514;2023-04-10T04:12:59;97289.28;;;4.85;75.76
10992;BME280;5549;47.028;15.514;2023-04-10T04:15:30;97285.69;;;4.88;75.54
10992;BME280;5549;47.028;15.514;2023-04-10T04:18:00;97276.56;;;4.96;75.05
10992;BME280;5549;47.028;15.514;2023-04-10T04:20:27;97284.31;;;4.98;74.72
10992;BME280;5549;47.028;15.514;2023-04-10T04:22:55;97280.03;;;4.97;74.61
10992;BME280;5549;47.028;15.514;2023-04-10T04:25:22;97287.06;;;4.95;74.92
10992;BME280;5549;47.028;15.514;2023-04-10T04:27:53;97292.56;;;4.89;74.95
10992;BME280;5549;47.028;15.514;2023-04-10T04:30:20;97291.50;;;4.93;74.67
10992;BME280;5549;47.028;15.514;2023-04-10T04:32:49;97294.25;;;4.90;75.10
10992;BME280;5549;47.028;15.514;2023-04-10T04:35:17;97294.03;;;4.77;75.71
10992;BME280;5549;47.028;15.514;2023-04-10T04:37:45;97298.22;;;4.79;75.24
10992;BME280;5549;47.028;15.514;2023-04-10T04:40:15;97292.03;;;4.82;75.37
10992;BME280;5549;47.028;15.514;2023-04-10T04:42:43;97300.22;;;4.92;74.77
10992;BME280;5549;47.028;15.514;2023-04-10T04:45:10;97293.94;;;4.96;74.30
10992;BME280;5549;47.028;15.514;2023-04-10T04:47:39;97291.44;;;4.94;74.15
10992;BME280;5549;47.028;15.514;2023-04-10T04:50:09;97302.22;;;4.87;74.78
10992;BME280;5549;47.028;15.514;2023-04-10T04:52:37;97298.53;;;4.73;75.48
10992;BME280;5549;47.028;15.514;2023-04-10T04:55:08;97297.53;;;4.59;76.38
10992;BME280;5549;47.028;15.514;2023-04-10T04:57:36;97304.81;;;4.69;75.71
10992;BME280;5549;47.028;15.514;2023-04-10T05:00:05;97306.19;;;4.76;75.63
10992;BME280;5549;47.028;15.514;2023-04-10T05:02:33;97307.81;;;4.79;75.73
10992;BME280;5549;47.028;15.514;2023-04-10T05:05:01;97304.13;;;4.83;75.26
10992;BME280;5549;47.028;15.514;2023-04-10T05:07:33;97290.44;;;4.97;74.80
10992;BME280;5549;47.028;15.514;2023-04-10T05:10:00;97302.91;;;5.07;74.41
10992;BME280;5549;47.028;15.514;2023-04-10T05:12:28;97296.47;;;5.14;73.99
10992;BME280;5549;47.028;15.514;2023-04-10T05:14:56;97309.34;;;5.18;73.60
10992;BME280;5549;47.028;15.514;2023-04-10T05:17:23;97299.47;;;5.24;72.86
10992;BME280;5549;47.028;15.514;2023-04-10T05:19:51;97306.06;;;5.31;72.73
10992;BME280;5549;47.028;15.514;2023-04-10T05:22:21;97305.91;;;5.34;71.99
10992;BME280;5549;47.028;15.514;2023-04-10T05:24:49;97313.47;;;5.39;71.81
10992;BME280;5549;47.028;15.514;2023-04-10T05:27:17;97307.19;;;5.43;71.56
10992;BME280;5549;47.028;15.514;2023-04-10T05:29:47;97315.53;;;5.50;71.81
10992;BME280;5549;47.028;15.514;2023-04-10T05:32:14;97315.22;;;5.56;71.61
10992;BME280;5549;47.028;15.514;2023-04-10T05:34:42;97317.22;;;5.51;72.08
10992;BME280;5549;47.028;15.514;2023-04-10T05:37:09;97314.13;;;5.60;71.70
10992;BME280;5549;47.028;15.514;2023-04-10T05:39:38;97311.13;;;5.67;71.47
10992;BME280;5549;47.028;15.514;2023-04-10T05:42:07;97316.19;;;5.70;71.74
10992;BME280;5549;47.028;15.514;2023-04-10T05:44:34;97312.25;;;5.79;70.64
10992;BME280;5549;47.028;15.514;2023-04-10T05:47:04;97317.28;;;5.82;71.73
10992;BME280;5549;47.028;15.514;2023-04-10T05:49:32;97310.72;;;5.75;72.06
10992;BME280;5549;47.028;15.514;2023-04-10T05:52:02;97314.09;;;5.77;71.60
10992;BME280;5549;47.028;15.514;2023-04-10T05:54:30;97313.09;;;5.79;71.58
10992;BME280;5549;47.028;15.514;2023-04-10T05:56:57;97318.78;;;5.70;71.49
10992;BME280;5549;47.028;15.514;2023-04-10T05:59:26;97318.38;;;5.78;72.23
10992;BME280;5549;47.028;15.514;2023-04-10T06:01:56;97321.56;;;6.00;71.61
10992;BME280;5549;47.028;15.514;2023-04-10T06:04:26;97319.28;;;6.10;71.04
10992;BME280;5549;47.028;15.514;2023-04-10T06:06:53;97317.53;;;6.42;74.16
10992;BME280;5549;47.028;15.514;2023-04-10T06:09:21;97317.19;;;7.10;79.96
10992;BME280;5549;47.028;15.514;2023-04-10T06:11:51;97315.97;;;7.73;77.77
10992;BME280;5549;47.028;15.514;2023-04-10T06:14:19;97313.16;;;8.33;74.23
10992;BME280;5549;47.028;15.514;2023-04-10T06:16:48;97318.13;;;8.92;71.19
10992;BME280;5549;47.028;15.514;2023-04-10T06:19:16;97308.59;;;9.43;68.11
10992;BME280;5549;47.028;15.514;2023-04-10T06:21:44;97302.94;;;9.87;65.23
10992;BME280;5549;47.028;15.514;2023-04-10T06:24:14;97304.97;;;10.33;63.73
10992;BME280;5549;47.028;15.514;2023-04-10T06:26:41;97307.78;;;10.79;61.03
10992;BME280;5549;47.028;15.514;2023-04-10T06:29:09;97299.34;;;11.22;60.18
10992;BME280;5549;47.028;15.514;2023-04-10T06:31:38;97296.69;;;11.57;58.53
10992;BME280;5549;47.028;15.514;2023-04-10T06:34:07;97298.13;;;11.72;56.48
10992;BME280;5549;47.028;15.514;2023-04-10T06:36:35;97295.31;;;11.86;55.39
10992;BME280;5549;47.028;15.514;2023-04-10T06:39:05;97300.13;;;12.15;55.11
10992;BME280;5549;47.028;15.514;2023-04-10T06:41:35;97303.59;;;12.27;54.51
10992;BME280;5549;47.028;15.514;2023-04-10T06:44:04;97305.34;;;12.60;54.61
10992;BME280;5549;47.028;15.514;2023-04-10T06:46:32;97310.63;;;12.92;53.69
10992;BME280;5549;47.028;15.514;2023-04-10T06:49:02;97304.69;;;13.22;53.28
10992;BME280;5549;47.028;15.514;2023-04-10T06:51:33;97303.78;;;13.53;53.32
10992;BME280;5549;47.028;15.514;2023-04-10T06:54:00;97298.09;;;13.78;52.14
10992;BME280;5549;47.028;15.514;2023-04-10T06:56:31;97300.91;;;14.07;51.75
10992;BME280;5549;47.028;15.514;2023-04-10T06:58:58;97296.41;;;14.29;50.70
10992;BME280;5549;47.028;15.514;2023-04-10T07:01:26;97299.34;;;14.35;49.11
10992;BME280;5549;47.028;15.514;2023-04-10T07:03:56;97292.38;;;14.65;49.68
10992;BME280;5549;47.028;15.514;2023-04-10T07:06:24;97295.34;;;15.00;49.17
10992;BME280;5549;47.028;15.514;2023-04-10T07:08:55;97290.88;;;15.30;47.74
10992;BME280;5549;47.028;15.514;2023-04-10T07:11:23;97286.41;;;15.50;47.07
10992;BME280;5549;47.028;15.514;2023-04-10T07:13:50;97282.25;;;15.66;46.70
10992;BME280;5549;47.028;15.514;2023-04-10T07:16:23;97288.88;;;15.90;46.31
10992;BME280;5549;47.028;15.514;2023-04-10T07:18:51;97287.44;;;16.05;44.80
10992;BME280;5549;47.028;15.514;2023-04-10T07:21:18;97294.66;;;16.13;45.60
10992;BME280;5549;47.028;15.514;2023-04-10T07:23:49;97297.06;;;16.33;45.41
10992;BME280;5549;47.028;15.514;2023-04-10T07:26:23;97298.06;;;16.32;44.88
10992;BME280;5549;47.028;15.514;2023-04-10T07:28:50;97300.25;;;16.37;45.25
10992;BME280;5549;47.028;15.514;2023-04-10T07:31:18;97294.19;;;16.54;43.92
10992;BME280;5549;47.028;15.514;2023-04-10T07:33:46;97290.38;;;16.84;45.55
10992;BME280;5549;47.028;15.514;2023-04-10T07:36:13;97290.19;;;17.13;45.22
10992;BME280;5549;47.028;15.514;2023-04-10T07:38:41;97289.19;;;17.14;44.48
10992;BME280;5549;47.028;15.514;2023-04-10T07:41:11;97290.00;;;17.32;43.32
10992;BME280;5549;47.028;15.514;2023-04-10T07:43:42;97293.97;;;17.28;42.71
10992;BME280;5549;47.028;15.514;2023-04-10T07:46:11;97294.66;;;17.13;41.55
10992;BME280;5549;47.028;15.514;2023-04-10T07:48:38;97279.78;;;17.55;43.50
10992;BME280;5549;47.028;15.514;2023-04-10T07:51:08;97295.72;;;17.55;43.66
10992;BME280;5549;47.028;15.514;2023-04-10T07:53:39;97303.44;;;16.95;41.17
10992;BME280;5549;47.028;15.514;2023-04-10T07:56:14;97296.00;;;16.81;44.62
10992;BME280;5549;47.028;15.514;2023-04-10T07:58:43;97301.38;;;16.62;42.97
10992;BME280;5549;47.028;15.514;2023-04-10T08:01:11;97304.25;;;16.51;43.61
10992;BME280;5549;47.028;15.514;2023-04-10T08:03:39;97303.88;;;16.09;42.82
10992;BME280;5549;47.028;15.514;2023-04-10T08:06:10;97298.53;;;16.18;42.46
10992;BME280;5549;47.028;15.514;2023-04-10T08:08:40;97299.59;;;15.98;42.25
10992;BME280;5549;47.028;15.514;2023-04-10T08:11:22;97305.38;;;15.64;41.45
10992;BME280;5549;47.028;15.514;2023-04-10T08:13:57;97306.47;;;15.52;42.24
10992;BME280;5549;47.028;15.514;2023-04-10T08:16:28;97308.56;;;15.20;41.39
10992;BME280;5549;47.028;15.514;2023-04-10T08:18:59;97308.41;;;14.83;43.36
10992;BME280;5549;47.028;15.514;2023-04-10T08:21:28;97312.31;;;14.98;42.03
10992;BME280;5549;47.028;15.514;2023-04-10T08:23:59;97304.25;;;14.99;42.12
10992;BME280;5549;47.028;15.514;2023-04-10T08:26:27;97310.50;;;15.27;45.51
10992;BME280;5549;47.028;15.514;2023-04-10T08:28:58;97306.59;;;15.02;42.75
10992;BME280;5549;47.028;15.514;2023-04-10T08:31:27;97299.38;;;15.04;40.65
10992;BME280;5549;47.028;15.514;2023-04-10T08:33:55;97300.06;;;15.06;40.62
10992;BME280;5549;47.028;15.514;2023-04-10T08:36:23;97302.84;;;14.86;38.78
10992;BME280;5549;47.028;15.514;2023-04-10T08:38:54;97302.16;;;15.13;41.09
10992;BME280;5549;47.028;15.514;2023-04-10T08:41:23;97294.50;;;15.29;38.03
10992;BME280;5549;47.028;15.514;2023-04-10T08:43:56;97295.31;;;15.39;39.26
10992;BME280;5549;47.028;15.514;2023-04-10T08:46:23;97287.38;;;15.58;42.38
10992;BME280;5549;47.028;15.514;2023-04-10T08:49:00;97288.94;;;15.70;42.69
10992;BME280;5549;47.028;15.514;2023-04-10T08:51:35;97299.50;;;14.93;38.19
10992;BME280;5549;47.028;15.514;2023-04-10T08:54:09;97292.28;;;15.05;38.28
10992;BME280;5549;47.028;15.514;2023-04-10T08:56:49;97290.03;;;15.20;42.27
10992;BME280;5549;47.028;15.514;2023-04-10T08:59:20;97286.84;;;15.06;38.46
10992;BME280;5549;47.028;15.514;2023-04-10T09:01:48;97290.28;;;14.68;39.05
10992;BME280;5549;47.028;15.514;2023-04-10T09:04:18;97281.00;;;15.13;42.34
10992;BME280;5549;47.028;15.514;2023-04-10T09:06:48;97282.25;;;15.18;39.93
10992;BME280;5549;47.028;15.514;2023-04-10T09:09:18;97283.22;;;14.88;40.37
10992;BME280;5549;47.028;15.514;2023-04-10T09:11:59;97283.28;;;14.48;40.44
10992;BME280;5549;47.028;15.514;2023-04-10T09:14:31;97284.19;;;13.97;41.16
10992;BME280;5549;47.028;15.514;2023-04-10T09:17:15;97281.09;;;14.63;44.02
10992;BME280;5549;47.028;15.514;2023-04-10T09:19:47;97285.03;;;14.88;40.34
10992;BME280;5549;47.028;15.514;2023-04-10T09:22:15;97282.09;;;14.91;37.83
10992;BME280;5549;47.028;15.514;2023-04-10T09:24:44;97283.22;;;14.38;39.35
10992;BME280;5549;47.028;15.514;2023-04-10T09:27:28;97279.16;;;14.25;37.98
10992;BME280;5549;47.028;15.514;2023-04-10T09:29:58;97279.63;;;14.39;40.99
10992;BME280;5549;47.028;15.514;2023-04-10T09:32:39;97274.34;;;14.39;38.33
10992;BME280;5549;47.028;15.514;2023-04-10T09:35:08;97271.00;;;14.37;39.21
10992;BME280;5549;47.028;15.514;2023-04-10T09:37:39;97268.00;;;14.52;38.91
10992;BME280;5549;47.028;15.514;2023-04-10T09:40:19;97272.47;;;14.61;39.74
10992;BME280;5549;47.028;15.514;2023-04-10T09:42:51;97259.56;;;14.27;40.61
10992;BME280;5549;47.028;15.514;2023-04-10T09:45:22;97267.84;;;14.13;40.82
10992;BME280;5549;47.028;15.514;2023-04-10T09:48:04;97266.63;;;14.17;38.71
10992;BME280;5549;47.028;15.514;2023-04-10T09:50:35;97267.09;;;14.32;37.34
10992;BME280;5549;47.028;15.514;2023-04-10T09:53:03;97259.69;;;14.85;37.00
10992;BME280;5549;47.028;15.514;2023-04-10T09:55:34;97267.75;;;14.74;37.46
10992;BME280;5549;47.028;15.514;2023-04-10T09:58:03;97252.56;;;14.17;35.93
10992;BME280;5549;47.028;15.514;2023-04-10T10:00:38;97261.91;;;13.39;36.71
10992;BME280;5549;47.028;15.514;2023-04-10T10:03:08;97258.28;;;13.40;36.86
10992;BME280;5549;47.028;15.514;2023-04-10T10:05:40;97255.78;;;13.59;37.72
10992;BME280;5549;47.028;15.514;2023-04-10T10:08:09;97252.25;;;13.28;37.01
10992;BME280;5549;47.028;15.514;2023-04-10T10:10:45;97244.59;;;13.76;38.34
10992;BME280;5549;47.028;15.514;2023-04-10T10:13:19;97250.50;;;14.20;38.47
10992;BME280;5549;47.028;15.514;2023-04-10T10:16:00;97238.84;;;14.32;37.92
10992;BME280;5549;47.028;15.514;2023-04-10T10:18:38;97238.25;;;14.88;37.92
10992;BME280;5549;47.028;15.514;2023-04-10T10:21:08;97237.16;;;15.00;37.60
10992;BME280;5549;47.028;15.514;2023-04-10T10:23:39;97233.53;;;15.01;35.38
10992;BME280;5549;47.028;15.514;2023-04-10T10:26:10;97238.81;;;14.72;39.77
10992;BME280;5549;47.028;15.514;2023-04-10T10:28:39;97237.59;;;14.27;36.52
10992;BME280;5549;47.028;15.514;2023-04-10T10:31:12;97239.31;;;13.76;37.21
10992;BME280;5549;47.028;15.514;2023-04-10T10:33:40;97237.28;;;13.59;39.44
10992;BME280;5549;47.028;15.514;2023-04-10T10:36:08;97230.88;;;13.52;38.26
10992;BME280;5549;47.028;15.514;2023-04-10T10:38:43;97234.44;;;13.93;39.17
10992;BME280;5549;47.028;15.514;2023-04-10T10:41:17;97225.03;;;14.09;38.06
10992;BME280;5549;47.028;15.514;2023-04-10T10:43:52;97225.16;;;14.58;37.75
10992;BME280;5549;47.028;15.514;2023-04-10T10:46:34;97224.91;;;14.80;37.53
10992;BME280;5549;47.028;15.514;2023-04-10T10:49:04;97221.41;;;14.99;36.24
10992;BME280;5549;47.028;15.514;2023-04-10T10:51:45;97218.50;;;14.73;37.92
10992;BME280;5549;47.028;15.514;2023-04-10T10:54:33;97218.22;;;14.57;39.88
10992;BME280;5549;47.028;15.514;2023-04-10T10:57:03;97210.84;;;14.80;39.09
10992;BME280;5549;47.028;15.514;2023-04-10T10:59:54;97206.53;;;14.69;38.65
10992;BME280;5549;47.028;15.514;2023-04-10T11:02:26;97200.81;;;14.64;38.65
10992;BME280;5549;47.028;15.514;2023-04-10T11:04:53;97202.91;;;14.89;36.90
10992;BME280;5549;47.028;15.514;2023-04-10T11:07:21;97191.19;;;15.11;38.42
10992;BME280;5549;47.028;15.514;2023-04-10T11:10:11;97186.78;;;14.73;39.19
10992;BME280;5549;47.028;15.514;2023-04-10T11:13:15;97188.56;;;14.82;38.67
10992;BME280;5549;47.028;15.514;2023-04-10T11:15:44;97187.56;;;15.22;37.09
10992;BME280;5549;47.028;15.514;2023-04-10T11:18:13;97185.63;;;15.04;37.21
10992;BME280;5549;47.028;15.514;2023-04-10T11:21:08;97187.03;;;14.89;37.20
10992;BME280;5549;47.028;15.514;2023-04-10T11:24:03;97178.69;;;14.65;36.67
10992;BME280;5549;47.028;15.514;2023-04-10T11:26:39;97176.75;;;14.67;37.83
10992;BME280;5549;47.028;15.514;2023-04-10T11:29:32;97175.34;;;14.72;39.22
10992;BME280;5549;47.028;15.514;2023-04-10T11:32:04;97170.47;;;14.87;39.23
10992;BME280;5549;47.028;15.514;2023-04-10T11:34:43;97171.84;;;15.11;37.81
10992;BME280;5549;47.028;15.514;2023-04-10T11:37:21;97161.81;;;15.14;37.87
10992;BME280;5549;47.028;15.514;2023-04-10T11:40:03;97166.38;;;15.22;37.07
10992;BME280;5549;47.028;15.514;2023-04-10T11:42:33;97160.50;;;15.37;37.56
10992;BME280;5549;47.028;15.514;2023-04-10T11:45:24;97158.81;;;15.36;38.57
10992;BME280;5549;47.028;15.514;2023-04-10T11:47:54;97153.09;;;14.65;37.75
10992;BME280;5549;47.028;15.514;2023-04-10T11:50:28;97155.50;;;15.25;38.44
10992;BME280;5549;47.028;15.514;2023-04-10T11:52:59;97142.41;;;15.80;39.09
10992;BME280;5549;47.028;15.514;2023-04-10T11:55:36;97149.53;;;16.24;39.22
10992;BME280;5549;47.028;15.514;2023-04-10T11:58:04;97129.13;;;16.70;38.52
10992;BME280;5549;47.028;15.514;2023-04-10T12:00:56;97139.13;;;16.76;38.12
10992;BME280;5549;47.028;15.514;2023-04-10T12:03:41;97133.28;;;16.55;36.64
10992;BME280;5549;47.028;15.514;2023-04-10T12:06:14;97126.72;;;17.03;36.08
10992;BME280;5549;47.028;15.514;2023-04-10T12:08:43;97122.19;;;16.95;34.71
10992;BME280;5549;47.028;15.514;2023-04-10T12:11:12;97122.22;;;16.77;37.10
10992;BME280;5549;47.028;15.514;2023-04-10T12:13:41;97122.13;;;16.51;35.44
10992;BME280;5549;47.028;15.514;2023-04-10T12:16:11;97114.38;;;16.93;34.29
10992;BME280;5549;47.028;15.514;2023-04-10T12:18:41;97114.78;;;16.81;35.05
10992;BME280;5549;47.028;15.514;2023-04-10T12:21:11;97114.56;;;16.74;34.75
10992;BME280;5549;47.028;15.514;2023-04-10T12:23:41;97108.66;;;16.80;36.24
10992;BME280;5549;47.028;15.514;2023-04-10T12:26:14;97105.63;;;16.75;35.59
10992;BME280;5549;47.028;15.514;2023-04-10T12:28:51;97101.47;;;16.98;36.94
10992;BME280;5549;47.028;15.514;2023-04-10T12:31:28;97097.06;;;17.07;36.00
10992;BME280;5549;47.028;15.514;2023-04-10T12:33:56;97097.84;;;16.99;34.58
10992;BME280;5549;47.028;15.514;2023-04-10T12:36:28;97099.09;;;16.87;34.46
10992;BME280;5549;47.028;15.514;2023-04-10T12:38:56;97095.19;;;16.38;33.48
10992;BME280;5549;47.028;15.514;2023-04-10T12:41:26;97079.31;;;16.64;34.12
10992;BME280;5549;47.028;15.514;2023-04-10T12:44:07;97093.50;;;16.19;34.65
10992;BME280;5549;47.028;15.514;2023-04-10T12:46:34;97095.78;;;16.50;33.78
10992;BME280;5549;47.028;15.514;2023-04-10T12:49:10;97086.31;;;16.47;34.14
10992;BME280;5549;47.028;15.514;2023-04-10T12:51:47;97077.66;;;16.63;36.38
10992;BME280;5549;47.028;15.514;2023-04-10T12:54:31;97071.41;;;17.16;35.48
10992;BME280;5549;47.028;15.514;2023-04-10T12:57:02;97064.84;;;17.28;36.01
10992;BME280;5549;47.028;15.514;2023-04-10T12:59:30;97068.81;;;16.98;33.43
10992;BME280;5549;47.028;15.514;2023-04-10T13:02:00;97065.22;;;16.81;32.21
10992;BME280;5549;47.028;15.514;2023-04-10T13:04:29;97065.44;;;16.88;32.99
10992;BME280;5549;47.028;15.514;2023-04-10T13:06:58;97065.47;;;16.52;34.64
10992;BME280;5549;47.028;15.514;2023-04-10T13:09:28;97066.38;;;16.79;35.46
10992;BME280;5549;47.028;15.514;2023-04-10T13:11:56;97058.94;;;16.82;33.59
10992;BME280;5549;47.028;15.514;2023-04-10T13:14:23;97065.50;;;16.96;33.75
10992;BME280;5549;47.028;15.514;2023-04-10T13:16:53;97055.91;;;17.03;32.74
10992;BME280;5549;47.028;15.514;2023-04-10T13:19:21;97062.06;;;17.04;34.86
10992;BME280;5549;47.028;15.514;2023-04-10T13:21:49;97051.97;;;16.81;33.57
10992;BME280;5549;47.028;15.514;2023-04-10T13:24:21;97049.97;;;16.22;34.74
10992;BME280;5549;47.028;15.514;2023-04-10T13:26:48;97043.53;;;16.42;35.81